sensor_id;sensor_type;location;lat;lon;timestamp;P1;durP1;ratioP1;P2;durP2;ratioP2
19566;SDS011;9930;49.240;8.548;2022-11-15T00:02:10;14.65;;;11.77;;
19566;SDS011;9930;49.240;8.548;2022-11-15T00:04:41;9.73;;;8.68;;
19566;SDS011;9930;49.240;8.548;2022-11-15T00:07:11;8.35;;;7.50;;
19566;SDS011;9930;49.240;8.548;2022-11-15T00:09:41;6.55;;;5.95;;
19566;SDS011;9930;49.240;8.548;2022-11-15T00:12:13;6.13;;;5.57;;
19566;SDS011;9930;49.240;8.548;2022-11-15T00:14:41;6.00;;;5.32;;
19566;SDS011;9930;49.240;8.548;2022-11-15T00:17:17;5.30;;;4.90;;
19566;SDS011;9930;49.240;8.548;2022-11-15T00:19:44;6.32;;;4.80;;
19566;SDS011;9930;49.240;8.548;2022-11-15T00:22:19;5.45;;;4.93;;
19566;SDS011;9930;49.240;8.548;2022-11-15T00:24:44;5.20;;;4.80;;
19566;SDS011;9930;49.240;8.548;2022-11-15T00:27:10;5.93;;;4.70;;
19566;SDS011;9930;49.240;8.548;2022-11-15T00:29:40;5.22;;;4.72;;
19566;SDS011;9930;49.240;8.548;2022-11-15T00:32:10;5.25;;;4.75;;
19566;SDS011;9930;49.240;8.548;2022-11-15T00:34:39;5.47;;;4.95;;
19566;SDS011;9930;49.240;8.548;2022-11-15T00:37:09;5.00;;;4.50;;
19566;SDS011;9930;49.240;8.548;2022-11-15T00:39:34;5.30;;;4.80;;
19566;SDS011;9930;49.240;8.548;2022-11-15T00:42:02;5.65;;;5.15;;
19566;SDS011;9930;49.240;8.548;2022-11-15T00:44:30;5.40;;;4.90;;
19566;SDS011;9930;49.240;8.548;2022-11-15T00:46:56;4.57;;;4.13;;
19566;SDS011;9930;49.240;8.548;2022-11-15T00:49:21;5.10;;;4.60;;
19566;SDS011;9930;49.240;8.548;2022-11-15T00:51:47;4.68;;;4.20;;
19566;SDS011;9930;49.240;8.548;2022-11-15T00:54:14;4.90;;;4.50;;
19566;SDS011;9930;49.240;8.548;2022-11-15T00:56:41;5.07;;;4.57;;
19566;SDS011;9930;49.240;8.548;2022-11-15T00:59:14;5.20;;;4.70;;
19566;SDS011;9930;49.240;8.548;2022-11-15T01:01:43;4.93;;;4.43;;
19566;SDS011;9930;49.240;8.548;2022-11-15T01:04:13;4.85;;;4.20;;
19566;SDS011;9930;49.240;8.548;2022-11-15T01:06:42;4.70;;;4.30;;
19566;SDS011;9930;49.240;8.548;2022-11-15T01:09:15;4.47;;;4.03;;
19566;SDS011;9930;49.240;8.548;2022-11-15T01:11:44;4.50;;;4.10;;
19566;SDS011;9930;49.240;8.548;2022-11-15T01:14:13;4.55;;;4.15;;
19566;SDS011;9930;49.240;8.548;2022-11-15T01:16:42;4.05;;;3.72;;
19566;SDS011;9930;49.240;8.548;2022-11-15T01:19:11;4.43;;;4.03;;
19566;SDS011;9930;49.240;8.548;2022-11-15T01:21:43;4.88;;;4.05;;
19566;SDS011;9930;49.240;8.548;2022-11-15T01:24:11;5.20;;;4.70;;
19566;SDS011;9930;49.240;8.548;2022-11-15T01:26:41;4.78;;;4.38;;
19566;SDS011;9930;49.240;8.548;2022-11-15T01:29:10;4.40;;;4.00;;
19566;SDS011;9930;49.240;8.548;2022-11-15T01:31:49;4.78;;;4.30;;
19566;SDS011;9930;49.240;8.548;2022-11-15T01:34:20;4.47;;;4.00;;
19566;SDS011;9930;49.240;8.548;2022-11-15T01:36:48;4.63;;;4.10;;
19566;SDS011;9930;49.240;8.548;2022-11-15T01:39:14;5.07;;;4.18;;
19566;SDS011;9930;49.240;8.548;2022-11-15T01:41:41;4.75;;;4.30;;
19566;SDS011;9930;49.240;8.548;2022-11-15T01:47:15;4.43;;;4.03;;
19566;SDS011;9930;49.240;8.548;2022-11-15T01:50:00;4.47;;;3.95;;
19566;SDS011;9930;49.240;8.548;2022-11-15T01:52:45;4.18;;;3.80;;
19566;SDS011;9930;49.240;8.548;2022-11-15T01:55:23;3.80;;;3.50;;
19566;SDS011;9930;49.240;8.548;2022-11-15T01:57:53;5.07;;;4.18;;
19566;SDS011;9930;49.240;8.548;2022-11-15T02:00:24;3.80;;;3.50;;
19566;SDS011;9930;49.240;8.548;2022-11-15T02:02:50;3.83;;;3.53;;
19566;SDS011;9930;49.240;8.548;2022-11-15T02:05:18;4.63;;;4.13;;
19566;SDS011;9930;49.240;8.548;2022-11-15T02:07:45;3.95;;;3.58;;
19566;SDS011;9930;49.240;8.548;2022-11-15T02:10:18;4.68;;;4.03;;
19566;SDS011;9930;49.240;8.548;2022-11-15T02:12:50;4.20;;;3.80;;
19566;SDS011;9930;49.240;8.548;2022-11-15T02:15:18;4.65;;;4.25;;
19566;SDS011;9930;49.240;8.548;2022-11-15T02:17:58;4.70;;;4.00;;
19566;SDS011;9930;49.240;8.548;2022-11-15T02:20:51;4.00;;;3.60;;
19566;SDS011;9930;49.240;8.548;2022-11-15T02:32:34;4.20;;;3.80;;
19566;SDS011;9930;49.240;8.548;2022-11-15T02:36:23;4.03;;;3.72;;
19566;SDS011;9930;49.240;8.548;2022-11-15T02:41:57;4.05;;;3.65;;
19566;SDS011;9930;49.240;8.548;2022-11-15T02:44:39;4.65;;;4.15;;
19566;SDS011;9930;49.240;8.548;2022-11-15T02:47:13;4.20;;;3.80;;
19566;SDS011;9930;49.240;8.548;2022-11-15T02:49:47;4.32;;;3.92;;
19566;SDS011;9930;49.240;8.548;2022-11-15T02:52:22;4.65;;;3.75;;
19566;SDS011;9930;49.240;8.548;2022-11-15T02:54:53;5.40;;;3.55;;
19566;SDS011;9930;49.240;8.548;2022-11-15T02:57:26;3.78;;;3.47;;
19566;SDS011;9930;49.240;8.548;2022-11-15T03:00:20;3.97;;;3.58;;
19566;SDS011;9930;49.240;8.548;2022-11-15T03:02:51;4.43;;;3.88;;
19566;SDS011;9930;49.240;8.548;2022-11-15T03:05:35;4.38;;;3.88;;
19566;SDS011;9930;49.240;8.548;2022-11-15T03:11:16;3.95;;;3.55;;
19566;SDS011;9930;49.240;8.548;2022-11-15T03:16:32;3.70;;;3.40;;
19566;SDS011;9930;49.240;8.548;2022-11-15T03:19:06;4.05;;;3.65;;
19566;SDS011;9930;49.240;8.548;2022-11-15T03:21:40;4.85;;;3.80;;
19566;SDS011;9930;49.240;8.548;2022-11-15T03:24:16;3.50;;;3.20;;
19566;SDS011;9930;49.240;8.548;2022-11-15T03:26:47;3.45;;;3.15;;
19566;SDS011;9930;49.240;8.548;2022-11-15T03:29:19;3.63;;;3.33;;
19566;SDS011;9930;49.240;8.548;2022-11-15T03:31:58;3.63;;;3.33;;
19566;SDS011;9930;49.240;8.548;2022-11-15T03:34:46;3.63;;;3.33;;
19566;SDS011;9930;49.240;8.548;2022-11-15T03:37:20;3.60;;;3.30;;
19566;SDS011;9930;49.240;8.548;2022-11-15T03:39:52;3.78;;;3.40;;
19566;SDS011;9930;49.240;8.548;2022-11-15T03:42:45;3.72;;;3.33;;
19566;SDS011;9930;49.240;8.548;2022-11-15T03:45:25;3.30;;;3.00;;
19566;SDS011;9930;49.240;8.548;2022-11-15T03:50:40;3.55;;;3.25;;
19566;SDS011;9930;49.240;8.548;2022-11-15T03:53:15;3.55;;;3.25;;
19566;SDS011;9930;49.240;8.548;2022-11-15T03:55:43;3.65;;;3.35;;
19566;SDS011;9930;49.240;8.548;2022-11-15T03:58:11;3.75;;;3.40;;
19566;SDS011;9930;49.240;8.548;2022-11-15T04:00:49;3.70;;;3.35;;
19566;SDS011;9930;49.240;8.548;2022-11-15T04:03:15;3.85;;;3.45;;
19566;SDS011;9930;49.240;8.548;2022-11-15T04:05:45;3.70;;;3.38;;
19566;SDS011;9930;49.240;8.548;2022-11-15T04:08:15;3.38;;;3.08;;
19566;SDS011;9930;49.240;8.548;2022-11-15T04:10:42;3.33;;;3.03;;
19566;SDS011;9930;49.240;8.548;2022-11-15T04:13:16;3.50;;;3.20;;
19566;SDS011;9930;49.240;8.548;2022-11-15T04:15:43;3.45;;;3.15;;
19566;SDS011;9930;49.240;8.548;2022-11-15T04:18:11;3.50;;;3.28;;
19566;SDS011;9930;49.240;8.548;2022-11-15T04:20:45;3.78;;;3.45;;
19566;SDS011;9930;49.240;8.548;2022-11-15T04:23:29;3.53;;;3.22;;
19566;SDS011;9930;49.240;8.548;2022-11-15T04:26:16;3.80;;;3.33;;
19566;SDS011;9930;49.240;8.548;2022-11-15T04:28:48;4.05;;;3.53;;
19566;SDS011;9930;49.240;8.548;2022-11-15T04:31:32;3.40;;;3.10;;
19566;SDS011;9930;49.240;8.548;2022-11-15T04:33:58;3.65;;;3.35;;
19566;SDS011;9930;49.240;8.548;2022-11-15T04:36:24;3.55;;;3.25;;
19566;SDS011;9930;49.240;8.548;2022-11-15T04:39:08;3.13;;;2.90;;
19566;SDS011;9930;49.240;8.548;2022-11-15T04:41:45;4.13;;;3.58;;
19566;SDS011;9930;49.240;8.548;2022-11-15T04:44:12;3.28;;;2.97;;
19566;SDS011;9930;49.240;8.548;2022-11-15T04:46:43;3.85;;;3.03;;
19566;SDS011;9930;49.240;8.548;2022-11-15T04:49:12;3.88;;;3.28;;
19566;SDS011;9930;49.240;8.548;2022-11-15T04:51:42;4.70;;;4.25;;
19566;SDS011;9930;49.240;8.548;2022-11-15T04:54:11;4.18;;;3.78;;
19566;SDS011;9930;49.240;8.548;2022-11-15T04:56:41;4.90;;;4.38;;
19566;SDS011;9930;49.240;8.548;2022-11-15T04:59:15;3.67;;;3.38;;
19566;SDS011;9930;49.240;8.548;2022-11-15T05:01:45;4.25;;;3.65;;
19566;SDS011;9930;49.240;8.548;2022-11-15T05:04:15;4.43;;;4.03;;
19566;SDS011;9930;49.240;8.548;2022-11-15T05:06:47;4.10;;;3.70;;
19566;SDS011;9930;49.240;8.548;2022-11-15T05:09:16;4.10;;;3.70;;
19566;SDS011;9930;49.240;8.548;2022-11-15T05:11:45;4.45;;;4.05;;
19566;SDS011;9930;49.240;8.548;2022-11-15T05:14:14;4.22;;;3.83;;
19566;SDS011;9930;49.240;8.548;2022-11-15T05:16:42;3.53;;;3.22;;
19566;SDS011;9930;49.240;8.548;2022-11-15T05:19:10;3.80;;;3.50;;
19566;SDS011;9930;49.240;8.548;2022-11-15T05:21:40;3.95;;;3.63;;
19566;SDS011;9930;49.240;8.548;2022-11-15T05:24:13;4.07;;;3.72;;
19566;SDS011;9930;49.240;8.548;2022-11-15T05:26:44;3.90;;;3.60;;
19566;SDS011;9930;49.240;8.548;2022-11-15T05:29:14;4.05;;;3.75;;
19566;SDS011;9930;49.240;8.548;2022-11-15T05:31:40;3.85;;;3.55;;
19566;SDS011;9930;49.240;8.548;2022-11-15T05:34:10;8.55;;;6.40;;
19566;SDS011;9930;49.240;8.548;2022-11-15T05:36:44;11.18;;;7.03;;
19566;SDS011;9930;49.240;8.548;2022-11-15T05:39:15;14.15;;;8.32;;
19566;SDS011;9930;49.240;8.548;2022-11-15T05:41:50;20.58;;;12.05;;
19566;SDS011;9930;49.240;8.548;2022-11-15T05:44:22;41.25;;;22.92;;
19566;SDS011;9930;49.240;8.548;2022-11-15T05:46:50;41.00;;;25.35;;
19566;SDS011;9930;49.240;8.548;2022-11-15T05:49:21;31.77;;;23.35;;
19566;SDS011;9930;49.240;8.548;2022-11-15T05:51:51;22.85;;;16.80;;
19566;SDS011;9930;49.240;8.548;2022-11-15T05:54:19;15.00;;;11.60;;
19566;SDS011;9930;49.240;8.548;2022-11-15T05:56:50;10.10;;;7.70;;
19566;SDS011;9930;49.240;8.548;2022-11-15T05:59:16;7.90;;;6.88;;
19566;SDS011;9930;49.240;8.548;2022-11-15T06:01:45;9.20;;;7.43;;
19566;SDS011;9930;49.240;8.548;2022-11-15T06:04:12;7.35;;;6.50;;
19566;SDS011;9930;49.240;8.548;2022-11-15T06:06:43;6.90;;;5.57;;
19566;SDS011;9930;49.240;8.548;2022-11-15T06:09:13;6.30;;;5.70;;
19566;SDS011;9930;49.240;8.548;2022-11-15T06:11:45;6.07;;;5.20;;
19566;SDS011;9930;49.240;8.548;2022-11-15T06:14:15;5.38;;;4.88;;
19566;SDS011;9930;49.240;8.548;2022-11-15T06:16:41;5.78;;;5.15;;
19566;SDS011;9930;49.240;8.548;2022-11-15T06:19:11;5.65;;;5.15;;
19566;SDS011;9930;49.240;8.548;2022-11-15T06:21:45;4.97;;;4.32;;
19566;SDS011;9930;49.240;8.548;2022-11-15T06:24:12;4.75;;;4.38;;
19566;SDS011;9930;49.240;8.548;2022-11-15T06:26:45;7.38;;;6.68;;
19566;SDS011;9930;49.240;8.548;2022-11-15T06:29:13;7.00;;;6.30;;
19566;SDS011;9930;49.240;8.548;2022-11-15T06:31:43;6.00;;;4.78;;
19566;SDS011;9930;49.240;8.548;2022-11-15T06:34:12;6.00;;;5.40;;
19566;SDS011;9930;49.240;8.548;2022-11-15T06:36:42;10.68;;;9.45;;
19566;SDS011;9930;49.240;8.548;2022-11-15T06:39:20;11.15;;;9.73;;
19566;SDS011;9930;49.240;8.548;2022-11-15T06:41:45;7.13;;;5.75;;
19566;SDS011;9930;49.240;8.548;2022-11-15T06:44:15;4.82;;;4.43;;
19566;SDS011;9930;49.240;8.548;2022-11-15T06:46:43;5.25;;;4.45;;
19566;SDS011;9930;49.240;8.548;2022-11-15T06:49:11;4.88;;;3.67;;
19566;SDS011;9930;49.240;8.548;2022-11-15T06:51:45;4.82;;;4.43;;
19566;SDS011;9930;49.240;8.548;2022-11-15T06:54:19;4.80;;;4.40;;
19566;SDS011;9930;49.240;8.548;2022-11-15T06:56:46;5.05;;;4.50;;
19566;SDS011;9930;49.240;8.548;2022-11-15T06:59:13;5.10;;;4.65;;
19566;SDS011;9930;49.240;8.548;2022-11-15T07:01:45;6.15;;;5.18;;
19566;SDS011;9930;49.240;8.548;2022-11-15T07:04:12;5.93;;;5.05;;
19566;SDS011;9930;49.240;8.548;2022-11-15T07:06:41;4.63;;;4.22;;
19566;SDS011;9930;49.240;8.548;2022-11-15T07:09:15;4.93;;;3.85;;
19566;SDS011;9930;49.240;8.548;2022-11-15T07:11:44;4.88;;;4.25;;
19566;SDS011;9930;49.240;8.548;2022-11-15T07:14:12;4.50;;;4.10;;
19566;SDS011;9930;49.240;8.548;2022-11-15T07:16:44;4.30;;;3.90;;
19566;SDS011;9930;49.240;8.548;2022-11-15T07:19:10;4.90;;;4.00;;
19566;SDS011;9930;49.240;8.548;2022-11-15T07:21:40;3.80;;;3.50;;
19566;SDS011;9930;49.240;8.548;2022-11-15T07:24:15;4.00;;;3.53;;
19566;SDS011;9930;49.240;8.548;2022-11-15T07:26:44;4.45;;;4.05;;
19566;SDS011;9930;49.240;8.548;2022-11-15T07:29:15;4.53;;;3.90;;
19566;SDS011;9930;49.240;8.548;2022-11-15T07:31:43;4.55;;;4.15;;
19566;SDS011;9930;49.240;8.548;2022-11-15T07:34:11;4.22;;;3.92;;
19566;SDS011;9930;49.240;8.548;2022-11-15T07:36:41;4.32;;;3.92;;
19566;SDS011;9930;49.240;8.548;2022-11-15T07:39:15;4.93;;;4.45;;
19566;SDS011;9930;49.240;8.548;2022-11-15T07:41:45;5.18;;;4.00;;
19566;SDS011;9930;49.240;8.548;2022-11-15T07:44:15;4.40;;;4.00;;
19566;SDS011;9930;49.240;8.548;2022-11-15T07:46:43;6.78;;;4.25;;
19566;SDS011;9930;49.240;8.548;2022-11-15T07:49:12;4.20;;;3.80;;
19566;SDS011;9930;49.240;8.548;2022-11-15T07:51:45;4.55;;;4.03;;
19566;SDS011;9930;49.240;8.548;2022-11-15T07:54:19;4.47;;;4.07;;
19566;SDS011;9930;49.240;8.548;2022-11-15T07:56:45;4.70;;;4.30;;
19566;SDS011;9930;49.240;8.548;2022-11-15T07:59:14;4.43;;;4.03;;
19566;SDS011;9930;49.240;8.548;2022-11-15T08:01:45;4.88;;;4.30;;
19566;SDS011;9930;49.240;8.548;2022-11-15T08:04:14;5.18;;;4.43;;
19566;SDS011;9930;49.240;8.548;2022-11-15T08:06:41;5.53;;;4.82;;
19566;SDS011;9930;49.240;8.548;2022-11-15T08:09:11;5.32;;;4.70;;
19566;SDS011;9930;49.240;8.548;2022-11-15T08:11:44;4.60;;;4.15;;
19566;SDS011;9930;49.240;8.548;2022-11-15T08:14:10;4.50;;;4.10;;
19566;SDS011;9930;49.240;8.548;2022-11-15T08:16:40;5.30;;;4.80;;
19566;SDS011;9930;49.240;8.548;2022-11-15T08:19:09;4.90;;;4.30;;
19566;SDS011;9930;49.240;8.548;2022-11-15T08:21:37;4.65;;;4.25;;
19566;SDS011;9930;49.240;8.548;2022-11-15T08:24:03;4.40;;;4.00;;
19566;SDS011;9930;49.240;8.548;2022-11-15T08:26:31;5.68;;;3.88;;
19566;SDS011;9930;49.240;8.548;2022-11-15T08:29:00;4.03;;;3.72;;
19566;SDS011;9930;49.240;8.548;2022-11-15T08:31:25;5.75;;;5.25;;
19566;SDS011;9930;49.240;8.548;2022-11-15T08:33:51;4.82;;;4.43;;
19566;SDS011;9930;49.240;8.548;2022-11-15T08:36:17;4.95;;;4.45;;
19566;SDS011;9930;49.240;8.548;2022-11-15T08:38:44;5.22;;;4.72;;
19566;SDS011;9930;49.240;8.548;2022-11-15T08:41:19;5.85;;;4.57;;
19566;SDS011;9930;49.240;8.548;2022-11-15T08:44:02;6.88;;;6.18;;
19566;SDS011;9930;49.240;8.548;2022-11-15T08:46:27;7.95;;;7.28;;
19566;SDS011;9930;49.240;8.548;2022-11-15T08:48:53;8.20;;;7.40;;
19566;SDS011;9930;49.240;8.548;2022-11-15T08:51:19;7.65;;;7.05;;
19566;SDS011;9930;49.240;8.548;2022-11-15T08:53:45;7.00;;;6.40;;
19566;SDS011;9930;49.240;8.548;2022-11-15T08:56:13;8.55;;;7.75;;
19566;SDS011;9930;49.240;8.548;2022-11-15T08:58:44;8.75;;;7.45;;
19566;SDS011;9930;49.240;8.548;2022-11-15T09:01:19;7.07;;;6.28;;
19566;SDS011;9930;49.240;8.548;2022-11-15T09:03:46;7.20;;;6.60;;
19566;SDS011;9930;49.240;8.548;2022-11-15T09:06:17;5.57;;;5.07;;
19566;SDS011;9930;49.240;8.548;2022-11-15T09:08:44;4.85;;;4.45;;
19566;SDS011;9930;49.240;8.548;2022-11-15T09:11:11;4.70;;;4.30;;
19566;SDS011;9930;49.240;8.548;2022-11-15T09:13:47;4.40;;;3.95;;
19566;SDS011;9930;49.240;8.548;2022-11-15T09:16:14;4.22;;;3.63;;
19566;SDS011;9930;49.240;8.548;2022-11-15T09:18:41;3.78;;;3.47;;
19566;SDS011;9930;49.240;8.548;2022-11-15T09:21:14;4.15;;;3.72;;
19566;SDS011;9930;49.240;8.548;2022-11-15T09:23:41;3.75;;;3.45;;
19566;SDS011;9930;49.240;8.548;2022-11-15T09:26:11;4.03;;;3.72;;
19566;SDS011;9930;49.240;8.548;2022-11-15T09:28:44;4.68;;;3.50;;
19566;SDS011;9930;49.240;8.548;2022-11-15T09:31:10;3.75;;;3.45;;
19566;SDS011;9930;49.240;8.548;2022-11-15T09:33:42;4.18;;;3.70;;
19566;SDS011;9930;49.240;8.548;2022-11-15T09:36:11;4.22;;;3.83;;
19566;SDS011;9930;49.240;8.548;2022-11-15T09:38:47;4.28;;;3.88;;
19566;SDS011;9930;49.240;8.548;2022-11-15T09:49:40;3.95;;;3.60;;
19566;SDS011;9930;49.240;8.548;2022-11-15T09:52:10;3.78;;;3.40;;
19566;SDS011;9930;49.240;8.548;2022-11-15T09:54:46;4.40;;;3.88;;
19566;SDS011;9930;49.240;8.548;2022-11-15T09:57:16;3.88;;;3.47;;
19566;SDS011;9930;49.240;8.548;2022-11-15T10:05:45;4.65;;;4.20;;
19566;SDS011;9930;49.240;8.548;2022-11-15T10:11:08;5.07;;;4.15;;
19566;SDS011;9930;49.240;8.548;2022-11-15T10:13:44;5.65;;;3.97;;
19566;SDS011;9930;49.240;8.548;2022-11-15T10:22:04;3.83;;;2.72;;
19566;SDS011;9930;49.240;8.548;2022-11-15T10:24:44;3.17;;;2.88;;
19566;SDS011;9930;49.240;8.548;2022-11-15T10:27:14;3.50;;;2.92;;
19566;SDS011;9930;49.240;8.548;2022-11-15T10:29:46;3.08;;;2.70;;
19566;SDS011;9930;49.240;8.548;2022-11-15T10:32:16;3.38;;;3.08;;
19566;SDS011;9930;49.240;8.548;2022-11-15T10:34:49;3.45;;;3.15;;
19566;SDS011;9930;49.240;8.548;2022-11-15T10:37:27;4.13;;;3.72;;
19566;SDS011;9930;49.240;8.548;2022-11-15T10:40:03;2.90;;;2.70;;
19566;SDS011;9930;49.240;8.548;2022-11-15T10:43:05;3.63;;;3.22;;
19566;SDS011;9930;49.240;8.548;2022-11-15T10:45:46;3.08;;;2.78;;
19566;SDS011;9930;49.240;8.548;2022-11-15T10:50:48;9.80;;;6.40;;
19566;SDS011;9930;49.240;8.548;2022-11-15T10:56:07;7.35;;;5.88;;
19566;SDS011;9930;49.240;8.548;2022-11-15T10:58:50;6.05;;;4.88;;
19566;SDS011;9930;49.240;8.548;2022-11-15T11:01:24;7.22;;;6.47;;
19566;SDS011;9930;49.240;8.548;2022-11-15T11:06:28;5.63;;;4.82;;
19566;SDS011;9930;49.240;8.548;2022-11-15T11:14:56;4.55;;;4.15;;
19566;SDS011;9930;49.240;8.548;2022-11-15T11:25:51;7.22;;;5.57;;
19566;SDS011;9930;49.240;8.548;2022-11-15T11:32:25;5.10;;;4.30;;
19566;SDS011;9930;49.240;8.548;2022-11-15T11:41:13;5.15;;;4.65;;
19566;SDS011;9930;49.240;8.548;2022-11-15T11:52:26;4.30;;;3.13;;
19566;SDS011;9930;49.240;8.548;2022-11-15T12:00:29;2.90;;;2.70;;
19566;SDS011;9930;49.240;8.548;2022-11-15T12:05:37;2.70;;;2.50;;
19566;SDS011;9930;49.240;8.548;2022-11-15T12:08:31;3.05;;;2.70;;
19566;SDS011;9930;49.240;8.548;2022-11-15T12:11:17;3.03;;;2.80;;
19566;SDS011;9930;49.240;8.548;2022-11-15T12:14:01;3.50;;;3.20;;
19566;SDS011;9930;49.240;8.548;2022-11-15T12:16:39;3.47;;;3.17;;
19566;SDS011;9930;49.240;8.548;2022-11-15T12:19:15;3.95;;;3.10;;
19566;SDS011;9930;49.240;8.548;2022-11-15T12:24:20;4.63;;;3.97;;
19566;SDS011;9930;49.240;8.548;2022-11-15T12:27:04;4.40;;;3.20;;
19566;SDS011;9930;49.240;8.548;2022-11-15T12:29:43;4.10;;;3.70;;
19566;SDS011;9930;49.240;8.548;2022-11-15T12:32:30;5.10;;;4.28;;
19566;SDS011;9930;49.240;8.548;2022-11-15T12:35:03;6.20;;;5.65;;
19566;SDS011;9930;49.240;8.548;2022-11-15T12:38:10;4.75;;;4.35;;
19566;SDS011;9930;49.240;8.548;2022-11-15T12:41:19;5.35;;;4.85;;
19566;SDS011;9930;49.240;8.548;2022-11-15T12:43:48;6.30;;;5.70;;
19566;SDS011;9930;49.240;8.548;2022-11-15T12:48:47;5.28;;;4.78;;
19566;SDS011;9930;49.240;8.548;2022-11-15T12:51:20;5.30;;;4.82;;
19566;SDS011;9930;49.240;8.548;2022-11-15T12:54:56;4.93;;;4.53;;
19566;SDS011;9930;49.240;8.548;2022-11-15T12:59:49;5.78;;;4.28;;
19566;SDS011;9930;49.240;8.548;2022-11-15T13:04:49;4.20;;;3.90;;
19566;SDS011;9930;49.240;8.548;2022-11-15T13:18:26;3.28;;;3.08;;
19566;SDS011;9930;49.240;8.548;2022-11-15T13:21:17;4.57;;;3.90;;
19566;SDS011;9930;49.240;8.548;2022-11-15T13:24:10;4.75;;;4.15;;
19566;SDS011;9930;49.240;8.548;2022-11-15T13:26:46;4.25;;;3.85;;
19566;SDS011;9930;49.240;8.548;2022-11-15T13:29:16;3.65;;;3.35;;
19566;SDS011;9930;49.240;8.548;2022-11-15T13:31:47;3.58;;;3.28;;
19566;SDS011;9930;49.240;8.548;2022-11-15T13:34:22;3.92;;;3.55;;
19566;SDS011;9930;49.240;8.548;2022-11-15T13:37:00;3.97;;;3.58;;
19566;SDS011;9930;49.240;8.548;2022-11-15T13:39:34;3.70;;;3.40;;
19566;SDS011;9930;49.240;8.548;2022-11-15T13:42:03;5.88;;;5.30;;
19566;SDS011;9930;49.240;8.548;2022-11-15T13:45:01;4.50;;;4.00;;
19566;SDS011;9930;49.240;8.548;2022-11-15T13:47:31;4.00;;;3.60;;
19566;SDS011;9930;49.240;8.548;2022-11-15T13:49:57;4.85;;;4.40;;
19566;SDS011;9930;49.240;8.548;2022-11-15T13:52:27;7.18;;;5.82;;
19566;SDS011;9930;49.240;8.548;2022-11-15T13:57:59;4.38;;;3.97;;
19566;SDS011;9930;49.240;8.548;2022-11-15T14:03:12;4.18;;;3.78;;
19566;SDS011;9930;49.240;8.548;2022-11-15T14:06:26;4.13;;;3.72;;
19566;SDS011;9930;49.240;8.548;2022-11-15T14:11:34;5.30;;;4.90;;
19566;SDS011;9930;49.240;8.548;2022-11-15T14:16:47;6.05;;;5.45;;
19566;SDS011;9930;49.240;8.548;2022-11-15T14:22:10;5.43;;;4.90;;
19566;SDS011;9930;49.240;8.548;2022-11-15T14:27:42;4.50;;;4.10;;
19566;SDS011;9930;49.240;8.548;2022-11-15T14:30:42;4.93;;;4.53;;
19566;SDS011;9930;49.240;8.548;2022-11-15T14:33:32;6.68;;;5.78;;
19566;SDS011;9930;49.240;8.548;2022-11-15T14:38:49;6.03;;;5.20;;
19566;SDS011;9930;49.240;8.548;2022-11-15T14:41:22;4.97;;;4.50;;
19566;SDS011;9930;49.240;8.548;2022-11-15T14:43:51;4.72;;;4.28;;
19566;SDS011;9930;49.240;8.548;2022-11-15T14:46:18;4.30;;;3.95;;
19566;SDS011;9930;49.240;8.548;2022-11-15T14:48:46;5.10;;;4.68;;
19566;SDS011;9930;49.240;8.548;2022-11-15T14:51:16;5.32;;;4.82;;
19566;SDS011;9930;49.240;8.548;2022-11-15T14:53:45;4.50;;;3.90;;
19566;SDS011;9930;49.240;8.548;2022-11-15T14:56:14;3.88;;;3.58;;
19566;SDS011;9930;49.240;8.548;2022-11-15T14:58:42;3.90;;;3.50;;
19566;SDS011;9930;49.240;8.548;2022-11-15T15:01:19;4.50;;;3.35;;
19566;SDS011;9930;49.240;8.548;2022-11-15T15:03:50;3.78;;;3.38;;
19566;SDS011;9930;49.240;8.548;2022-11-15T15:06:23;5.72;;;5.13;;
19566;SDS011;9930;49.240;8.548;2022-11-15T15:08:52;5.25;;;4.75;;
19566;SDS011;9930;49.240;8.548;2022-11-15T15:13:52;5.13;;;4.63;;
19566;SDS011;9930;49.240;8.548;2022-11-15T15:16:21;4.93;;;4.43;;
19566;SDS011;9930;49.240;8.548;2022-11-15T15:18:50;4.35;;;3.90;;
19566;SDS011;9930;49.240;8.548;2022-11-15T15:21:22;4.00;;;3.60;;
19566;SDS011;9930;49.240;8.548;2022-11-15T15:23:52;4.07;;;2.90;;
19566;SDS011;9930;49.240;8.548;2022-11-15T15:26:21;3.30;;;3.00;;
19566;SDS011;9930;49.240;8.548;2022-11-15T15:28:50;4.72;;;3.53;;
19566;SDS011;9930;49.240;8.548;2022-11-15T15:31:16;8.70;;;4.57;;
19566;SDS011;9930;49.240;8.548;2022-11-15T15:33:46;8.85;;;6.55;;
19566;SDS011;9930;49.240;8.548;2022-11-15T15:36:17;7.05;;;5.68;;
19566;SDS011;9930;49.240;8.548;2022-11-15T15:38:45;5.80;;;5.30;;
19566;SDS011;9930;49.240;8.548;2022-11-15T15:41:16;4.88;;;4.38;;
19566;SDS011;9930;49.240;8.548;2022-11-15T15:43:44;4.95;;;4.55;;
19566;SDS011;9930;49.240;8.548;2022-11-15T15:46:15;4.70;;;4.30;;
19566;SDS011;9930;49.240;8.548;2022-11-15T15:48:46;8.95;;;8.07;;
19566;SDS011;9930;49.240;8.548;2022-11-15T15:51:16;10.82;;;9.10;;
19566;SDS011;9930;49.240;8.548;2022-11-15T15:53:46;9.73;;;6.82;;
19566;SDS011;9930;49.240;8.548;2022-11-15T15:56:17;7.10;;;6.40;;
19566;SDS011;9930;49.240;8.548;2022-11-15T15:58:45;6.47;;;5.75;;
19566;SDS011;9930;49.240;8.548;2022-11-15T16:01:20;5.57;;;5.07;;
19566;SDS011;9930;49.240;8.548;2022-11-15T16:03:46;6.10;;;5.55;;
19566;SDS011;9930;49.240;8.548;2022-11-15T16:09:12;7.47;;;5.57;;
19566;SDS011;9930;49.240;8.548;2022-11-15T16:11:46;6.88;;;5.82;;
19566;SDS011;9930;49.240;8.548;2022-11-15T16:14:17;6.45;;;5.53;;
19566;SDS011;9930;49.240;8.548;2022-11-15T16:16:46;6.10;;;5.18;;
19566;SDS011;9930;49.240;8.548;2022-11-15T16:19:14;6.20;;;4.70;;
19566;SDS011;9930;49.240;8.548;2022-11-15T16:21:46;8.60;;;4.93;;
19566;SDS011;9930;49.240;8.548;2022-11-15T16:24:13;7.13;;;5.68;;
19566;SDS011;9930;49.240;8.548;2022-11-15T16:26:44;8.88;;;6.28;;
19566;SDS011;9930;49.240;8.548;2022-11-15T16:29:15;7.28;;;6.38;;
19566;SDS011;9930;49.240;8.548;2022-11-15T16:31:45;9.68;;;8.77;;
19566;SDS011;9930;49.240;8.548;2022-11-15T16:34:13;9.02;;;8.23;;
19566;SDS011;9930;49.240;8.548;2022-11-15T16:36:44;7.25;;;6.55;;
19566;SDS011;9930;49.240;8.548;2022-11-15T16:39:20;6.50;;;5.90;;
19566;SDS011;9930;49.240;8.548;2022-11-15T16:41:47;5.90;;;5.13;;
19566;SDS011;9930;49.240;8.548;2022-11-15T16:44:15;6.15;;;5.57;;
19566;SDS011;9930;49.240;8.548;2022-11-15T16:46:49;6.88;;;6.18;;
19566;SDS011;9930;49.240;8.548;2022-11-15T16:49:16;10.40;;;9.40;;
19566;SDS011;9930;49.240;8.548;2022-11-15T16:51:46;9.50;;;8.55;;
19566;SDS011;9930;49.240;8.548;2022-11-15T16:54:16;8.43;;;7.53;;
19566;SDS011;9930;49.240;8.548;2022-11-15T16:56:42;7.53;;;6.60;;
19566;SDS011;9930;49.240;8.548;2022-11-15T16:59:16;9.82;;;7.70;;
19566;SDS011;9930;49.240;8.548;2022-11-15T17:01:46;6.35;;;5.80;;
19566;SDS011;9930;49.240;8.548;2022-11-15T17:04:19;6.35;;;5.78;;
19566;SDS011;9930;49.240;8.548;2022-11-15T17:06:46;7.35;;;6.65;;
19566;SDS011;9930;49.240;8.548;2022-11-15T17:09:20;6.82;;;6.22;;
19566;SDS011;9930;49.240;8.548;2022-11-15T17:11:50;6.75;;;6.03;;
19566;SDS011;9930;49.240;8.548;2022-11-15T17:14:21;7.22;;;6.53;;
19566;SDS011;9930;49.240;8.548;2022-11-15T17:16:47;15.30;;;13.55;;
19566;SDS011;9930;49.240;8.548;2022-11-15T17:19:19;11.95;;;10.70;;
19566;SDS011;9930;49.240;8.548;2022-11-15T17:21:47;9.98;;;8.20;;
19566;SDS011;9930;49.240;8.548;2022-11-15T17:24:16;8.70;;;7.75;;
19566;SDS011;9930;49.240;8.548;2022-11-15T17:26:48;7.82;;;7.13;;
19566;SDS011;9930;49.240;8.548;2022-11-15T17:29:16;7.20;;;6.10;;
19566;SDS011;9930;49.240;8.548;2022-11-15T17:31:45;10.30;;;7.97;;
19566;SDS011;9930;49.240;8.548;2022-11-15T17:34:16;11.63;;;8.35;;
19566;SDS011;9930;49.240;8.548;2022-11-15T17:36:48;11.07;;;8.73;;
19566;SDS011;9930;49.240;8.548;2022-11-15T17:39:16;13.27;;;10.15;;
19566;SDS011;9930;49.240;8.548;2022-11-15T17:41:45;12.77;;;10.38;;
19566;SDS011;9930;49.240;8.548;2022-11-15T17:44:11;12.77;;;10.23;;
19566;SDS011;9930;49.240;8.548;2022-11-15T17:46:43;11.05;;;9.50;;
19566;SDS011;9930;49.240;8.548;2022-11-15T17:49:11;11.30;;;9.52;;
19566;SDS011;9930;49.240;8.548;2022-11-15T17:51:46;8.77;;;7.25;;
19566;SDS011;9930;49.240;8.548;2022-11-15T17:54:20;7.75;;;6.65;;